Главная страница
METAR-TAF:

METAR-TAF

Аэропорты :

Beaver Creek, Юкон, Канада

широта: 62-25N, долгота: 140-52W, высота над уровнем моря: 649 м

Текущие метеонаблюдения

Эта сводка был подготовлена 5 часа и 37 минут назад, в 22:00 UTC
Ветер 4 Узел от северно-северо-западный, изменяющийся между северо-западный и северо-северо-восточный
Температура 8°C
Влажность 66%
Давление 1007 hPa
Видимость: 48.3 км
небольшая облачность на высоте 3500 фута
Рассеянная облачность на высоте 14000 фута
Рассеянная облачность на высоте 17000 фута

METAR: CYXQ 242200Z 34004KT 310V020 30SM FEW035 BKN140 BKN170 08/02 A2973 RMK CU2AC3AC2 CLIMAT 7.5/-0.8/0.0/LAST STFD OBS/NXT 251600Z SLP098

Время: 20:37 (03:37 UTC)


TAF: отсутствует

Метеонаблюдения и прогнозы для более 4000 аэропортов (сводки METAR и TAF).

Имеющиеся станции представлены на карте желтыми и красными точками.

Чтобы увидеть название станции, наведите на нее мышь.

Затем щелкните, чтобы увидеть метеонаблюдения и метеопрогнозы.

Управление картой: чтобы увеличить масштаб, щелкните зеленые кнопки с черным крестиком; чтобы уменьшить масштаб, щелкните зеленую кнопку с тире; для просмотра соседних карт щелкайте зеленые стрелки.


METAR-TAF: